PWSweather.com
Personal Weather Stations
Station Observations
SWHWX01
St AppolinardFR 38160

St AppolinardFR 38160

Lat: 45.191, Lon: 5.268

Elevation: 1460

Station Type: Davis Vantage Pro2 Plus

www.sweetwebhome.com/?show=wxindex

High Low Average
Temperature 44.8°F7.1°C 34.0°F1.1°C 39.7°F4.3°C
Dew Point 37.2°F2.9°C 30.0°F-1.1°C 35.0°F1.7°C
Winds 9.1 mph 14.6 kmh 0.4 mph 0.6 kmh 4.0 mph SW6.4 kmh SW
Wind Gusts 14.0 mph22.5 kmh 1.0 mph1.6 kmh 8.0 mph12.9 kmh
Humidity 90% 71% 83%
Pressure 30.32 in1026.8 mb 30.17 in1021.7 mb -
Precipitation 0.00 in0.0 mm - -
Hour Temp Dew Point Humidity Winds Wind Gusts Pressure Precip Precip Rate Daily Precip Total
12:00 AM 40.1°F4.5°C 36.5°F2.5°C 87% 6.4 mph N10.3 kmh N 8.0 mph12.9 kmh 30.32 in1026.8 mb - 0.00 in0.0 mm 0.00 in0.0 mm
12:30 AM 40.6°F4.8°C 37.0°F2.8°C 87% 5.8 mph NNW9.3 kmh NNW 9.0 mph14.5 kmh 30.31 in1026.4 mb - 0.00 in0.0 mm 0.00 in0.0 mm
01:00 AM 40.5°F4.7°C 36.9°F2.7°C 87% 3.5 mph NNW5.6 kmh NNW 9.0 mph14.5 kmh 30.30 in1026.1 mb - 0.00 in0.0 mm 0.00 in0.0 mm
01:30 AM 40.5°F4.7°C 36.9°F2.7°C 87% 0.7 mph NNE1.1 kmh NNE 2.0 mph3.2 kmh 30.30 in1026.1 mb - 0.00 in0.0 mm 0.00 in0.0 mm
02:00 AM 40.4°F4.7°C 36.8°F2.7°C 87% 2.8 mph NNE4.5 kmh NNE 8.0 mph12.9 kmh 30.29 in1025.7 mb - 0.00 in0.0 mm 0.00 in0.0 mm
02:30 AM 40.6°F4.8°C 36.7°F2.6°C 86% 4.4 mph NW7.1 kmh NW 8.0 mph12.9 kmh 30.28 in1025.4 mb - 0.00 in0.0 mm 0.00 in0.0 mm
03:00 AM 40.7°F4.8°C 37.1°F2.8°C 87% 3.1 mph NE5.0 kmh NE 7.0 mph11.3 kmh 30.28 in1025.4 mb - 0.00 in0.0 mm 0.00 in0.0 mm
03:30 AM 40.5°F4.7°C 37.2°F2.9°C 88% 4.6 mph NNE7.4 kmh NNE 9.0 mph14.5 kmh 30.27 in1025.1 mb - 0.00 in0.0 mm 0.00 in0.0 mm
04:00 AM 40.4°F4.7°C 37.1°F2.8°C 88% 2.9 mph NNE4.7 kmh NNE 5.0 mph8.0 kmh 30.27 in1025.1 mb - 0.00 in0.0 mm 0.00 in0.0 mm
04:30 AM 40.2°F4.6°C 36.9°F2.7°C 88% 3.5 mph N5.6 kmh N 6.0 mph9.7 kmh 30.26 in1024.7 mb - 0.00 in0.0 mm 0.00 in0.0 mm
05:00 AM 40.1°F4.5°C 36.8°F2.7°C 88% 4.1 mph N6.6 kmh N 10.0 mph16.1 kmh 30.26 in1024.7 mb - 0.00 in0.0 mm 0.00 in0.0 mm
05:30 AM 39.9°F4.4°C 36.7°F2.6°C 88% 6.5 mph N10.5 kmh N 7.0 mph11.3 kmh 30.25 in1024.4 mb - 0.00 in0.0 mm 0.00 in0.0 mm
06:00 AM 39.8°F4.3°C 36.8°F2.7°C 89% 7.3 mph NW11.7 kmh NW 8.0 mph12.9 kmh 30.25 in1024.4 mb - 0.00 in0.0 mm 0.00 in0.0 mm
06:30 AM 39.6°F4.2°C 36.7°F2.6°C 89% 3.2 mph N5.1 kmh N 6.0 mph9.7 kmh 30.25 in1024.4 mb - 0.00 in0.0 mm 0.00 in0.0 mm
07:00 AM 39.2°F4.0°C 36.5°F2.5°C 90% 2.8 mph NE4.5 kmh NE 4.0 mph6.4 kmh 30.25 in1024.4 mb - 0.00 in0.0 mm 0.00 in0.0 mm
07:30 AM 38.9°F3.8°C 35.9°F2.2°C 89% 4.6 mph N7.4 kmh N 9.0 mph14.5 kmh 30.24 in1024.0 mb - 0.00 in0.0 mm 0.00 in0.0 mm
08:00 AM 38.7°F3.7°C 36.0°F2.2°C 90% 2.5 mph N4.0 kmh N 3.0 mph4.8 kmh 30.24 in1024.0 mb - 0.00 in0.0 mm 0.00 in0.0 mm
08:30 AM 38.6°F3.7°C 35.7°F2.1°C 89% 4.8 mph N7.7 kmh N 7.0 mph11.3 kmh 30.24 in1024.0 mb - 0.00 in0.0 mm 0.00 in0.0 mm
09:00 AM 38.8°F3.8°C 35.8°F2.1°C 89% 3.1 mph N5.0 kmh N 7.0 mph11.3 kmh 30.23 in1023.7 mb - 0.00 in0.0 mm 0.00 in0.0 mm
09:30 AM 39.3°F4.1°C 35.5°F1.9°C 86% 2.6 mph N4.2 kmh N 5.0 mph8.0 kmh 30.23 in1023.7 mb - 0.00 in0.0 mm 0.00 in0.0 mm
10:00 AM 39.8°F4.3°C 35.7°F2.1°C 85% 3.2 mph NNW5.1 kmh NNW 8.0 mph12.9 kmh 30.23 in1023.7 mb - 0.00 in0.0 mm 0.00 in0.0 mm
10:30 AM 40.4°F4.7°C 35.9°F2.2°C 84% 2.7 mph NNW4.3 kmh NNW 8.0 mph12.9 kmh 30.23 in1023.7 mb - 0.00 in0.0 mm 0.00 in0.0 mm
11:00 AM 41.0°F5.0°C 35.9°F2.2°C 82% 5.2 mph NW8.4 kmh NW 11.0 mph17.7 kmh 30.23 in1023.7 mb - 0.00 in0.0 mm 0.00 in0.0 mm
11:30 AM 41.9°F5.5°C 35.8°F2.1°C 79% 6.8 mph NNW10.9 kmh NNW 12.0 mph19.3 kmh 30.23 in1023.7 mb - 0.00 in0.0 mm 0.00 in0.0 mm
12:00 PM 42.0°F5.6°C 35.7°F2.1°C 78% 7.5 mph N12.1 kmh N 10.0 mph16.1 kmh 30.22 in1023.4 mb - 0.00 in0.0 mm 0.00 in0.0 mm
12:30 PM 42.6°F5.9°C 35.3°F1.8°C 75% 9.1 mph NNW14.6 kmh NNW 12.0 mph19.3 kmh 30.22 in1023.4 mb - 0.00 in0.0 mm 0.00 in0.0 mm
01:00 PM 43.1°F6.2°C 35.4°F1.9°C 74% 5.7 mph NW9.2 kmh NW 9.0 mph14.5 kmh 30.22 in1023.4 mb - 0.00 in0.0 mm 0.00 in0.0 mm
01:30 PM 44.8°F7.1°C 36.6°F2.6°C 73% 2.4 mph NW3.9 kmh NW 9.0 mph14.5 kmh 30.21 in1023.0 mb - 0.00 in0.0 mm 0.00 in0.0 mm
02:00 PM 43.9°F6.6°C 35.1°F1.7°C 71% 2.4 mph NNE3.9 kmh NNE 8.0 mph12.9 kmh 30.20 in1022.7 mb - 0.00 in0.0 mm 0.00 in0.0 mm
02:30 PM 44.3°F6.8°C 35.8°F2.1°C 72% 5.0 mph N8.0 kmh N 10.0 mph16.1 kmh 30.19 in1022.4 mb - 0.00 in0.0 mm 0.00 in0.0 mm
03:00 PM 42.7°F5.9°C 35.3°F1.8°C 75% 3.2 mph NNW5.1 kmh NNW 9.0 mph14.5 kmh 30.20 in1022.7 mb - 0.00 in0.0 mm 0.00 in0.0 mm
03:30 PM 42.4°F5.8°C 35.7°F2.1°C 77% 3.0 mph NNW4.8 kmh NNW 11.0 mph17.7 kmh 30.19 in1022.4 mb - 0.00 in0.0 mm 0.00 in0.0 mm
04:00 PM 42.5°F5.8°C 35.8°F2.1°C 77% 1.5 mph NE2.4 kmh NE 6.0 mph9.7 kmh 30.19 in1022.4 mb - 0.00 in0.0 mm 0.00 in0.0 mm
04:30 PM 42.0°F5.6°C 35.6°F2.0°C 78% 4.6 mph NNE7.4 kmh NNE 7.0 mph11.3 kmh 30.18 in1022.0 mb - 0.00 in0.0 mm 0.00 in0.0 mm
05:00 PM 41.5°F5.3°C 34.8°F1.6°C 77% 4.5 mph NNE7.2 kmh NNE 8.0 mph12.9 kmh 30.18 in1022.0 mb - 0.00 in0.0 mm 0.00 in0.0 mm
05:30 PM 40.4°F4.7°C 34.4°F1.3°C 79% 5.6 mph NNW9.0 kmh NNW 6.0 mph9.7 kmh 30.18 in1022.0 mb - 0.00 in0.0 mm 0.00 in0.0 mm
06:00 PM 39.5°F4.2°C 33.8°F1.0°C 80% 5.0 mph NNW8.0 kmh NNW 6.0 mph9.7 kmh 30.17 in1021.7 mb - 0.00 in0.0 mm 0.00 in0.0 mm
06:30 PM 38.5°F3.6°C 33.2°F0.7°C 81% 4.9 mph NNW7.9 kmh NNW 8.0 mph12.9 kmh 30.17 in1021.7 mb - 0.00 in0.0 mm 0.00 in0.0 mm
07:00 PM 38.0°F3.3°C 32.4°F0.2°C 80% 7.3 mph N11.7 kmh N 12.0 mph19.3 kmh 30.17 in1021.7 mb - 0.00 in0.0 mm 0.00 in0.0 mm
07:30 PM 37.4°F3.0°C 32.1°F0.1°C 81% 6.1 mph N9.8 kmh N 10.0 mph16.1 kmh 30.17 in1021.7 mb - 0.00 in0.0 mm 0.00 in0.0 mm
08:00 PM 36.6°F2.6°C 31.6°F-0.2°C 82% 5.1 mph N8.2 kmh N 9.0 mph14.5 kmh 30.17 in1021.7 mb - 0.00 in0.0 mm 0.00 in0.0 mm
08:30 PM 36.0°F2.2°C 31.3°F-0.4°C 83% 6.7 mph NW10.8 kmh NW 11.0 mph17.7 kmh 30.17 in1021.7 mb - 0.00 in0.0 mm 0.00 in0.0 mm
09:00 PM 35.7°F2.1°C 31.3°F-0.4°C 84% 8.9 mph NW14.3 kmh NW 14.0 mph22.5 kmh 30.17 in1021.7 mb - 0.00 in0.0 mm 0.00 in0.0 mm
09:30 PM 35.1°F1.7°C 31.0°F-0.6°C 85% 4.7 mph NNW7.6 kmh NNW 8.0 mph12.9 kmh 30.17 in1021.7 mb - 0.00 in0.0 mm 0.00 in0.0 mm
10:00 PM 35.1°F1.7°C 30.8°F-0.7°C 84% 4.7 mph NNW7.6 kmh NNW 7.0 mph11.3 kmh 30.18 in1022.0 mb - 0.00 in0.0 mm 0.00 in0.0 mm
10:30 PM 34.4°F1.3°C 30.4°F-0.9°C 85% 3.7 mph NNW6.0 kmh NNW 6.0 mph9.7 kmh 30.19 in1022.4 mb - 0.00 in0.0 mm 0.00 in0.0 mm
11:00 PM 34.8°F1.6°C 30.5°F-0.8°C 84% 0.4 mph N0.6 kmh N 1.0 mph1.6 kmh 30.19 in1022.4 mb - 0.00 in0.0 mm 0.00 in0.0 mm
11:30 PM 34.0°F1.1°C 30.0°F-1.1°C 85% 4.8 mph N7.7 kmh N 6.0 mph9.7 kmh 30.19 in1022.4 mb - 0.00 in0.0 mm 0.00 in0.0 mm